Norwell, Massachusetts
Current Conditions -  °F | °C
As of 2:14 PM on Friday 24 Oct 2014 (Local Time) from KPYM Reporting Station
Overcast Overcast  
Wind Chill: 11°   Ceiling: 1500
Heat Index: 11°   Visibility: 10mi
Dew Point:   Wind: 10mph
Humidity: 89%   Direction: 340°NNW
Pressure: 29.67"   Gusts: NA
Location:  42.16°N, 70.79°W
Report Text: KPYM 241814Z AUTO 34009KT 10SM OVC015 11/09 A2967 RMK AO2 T01110094
Loading
Personal Weather Stations






























Interactive Weather Map
Tropical Storm Tracking
New forecast layout! Learn more

10-Day Weather Forecast

Advertisements
Track Severe Weather on mobile